地図

経路データ

SID SEASON NUMBER BASIN SUBBASIN NAME ISO_TIME NATURE LAT LON WMO_WIND WMO_PRES WMO_AGENCY TRACK_TYPE DIST2LAND LANDFALL IFLAG USA_AGENCY USA_ATCF_ID USA_LAT USA_LON USA_RECORD USA_STATUS USA_WIND USA_PRES USA_SSHS USA_R34_NE USA_R34_SE USA_R34_SW USA_R34_NW USA_R50_NE USA_R50_SE USA_R50_SW USA_R50_NW USA_R64_NE USA_R64_SE USA_R64_SW USA_R64_NW USA_POCI USA_ROCI USA_RMW USA_EYE TOKYO_LAT TOKYO_LON TOKYO_GRADE TOKYO_WIND TOKYO_PRES TOKYO_R50_DIR TOKYO_R50_LONG TOKYO_R50_SHORT TOKYO_R30_DIR TOKYO_R30_LONG TOKYO_R30_SHORT TOKYO_LAND CMA_LAT CMA_LON CMA_CAT CMA_WIND CMA_PRES HKO_LAT HKO_LON HKO_CAT HKO_WIND HKO_PRES NEWDELHI_LAT NEWDELHI_LON NEWDELHI_GRADE NEWDELHI_WIND NEWDELHI_PRES NEWDELHI_CI NEWDELHI_DP NEWDELHI_POCI REUNION_LAT REUNION_LON REUNION_TYPE REUNION_WIND REUNION_PRES REUNION_TNUM REUNION_CI REUNION_RMW REUNION_R34_NE REUNION_R34_SE REUNION_R34_SW REUNION_R34_NW REUNION_R50_NE REUNION_R50_SE REUNION_R50_SW REUNION_R50_NW REUNION_R64_NE REUNION_R64_SE REUNION_R64_SW REUNION_R64_NW BOM_LAT BOM_LON BOM_TYPE BOM_WIND BOM_PRES BOM_TNUM BOM_CI BOM_RMW BOM_R34_NE BOM_R34_SE BOM_R34_SW BOM_R34_NW BOM_R50_NE BOM_R50_SE BOM_R50_SW BOM_R50_NW BOM_R64_NE BOM_R64_SE BOM_R64_SW BOM_R64_NW BOM_ROCI BOM_POCI BOM_EYE BOM_POS_METHOD BOM_PRES_METHOD NADI_LAT NADI_LON NADI_CAT NADI_WIND NADI_PRES WELLINGTON_LAT WELLINGTON_LON WELLINGTON_WIND WELLINGTON_PRES DS824_LAT DS824_LON DS824_STAGE DS824_WIND DS824_PRES TD9636_LAT TD9636_LON TD9636_STAGE TD9636_WIND TD9636_PRES TD9635_LAT TD9635_LON TD9635_WIND TD9635_PRES TD9635_ROCI NEUMANN_LAT NEUMANN_LON NEUMANN_CLASS NEUMANN_WIND NEUMANN_PRES MLC_LAT MLC_LON MLC_CLASS MLC_WIND MLC_PRES USA_GUST BOM_GUST BOM_GUST_PER REUNION_GUST REUNION_GUST_PER USA_SEAHGT USA_SEARAD_NE USA_SEARAD_SE USA_SEARAD_SW USA_SEARAD_NW STORM_SPEED STORM_DIR
1965182N12264 1965 53 EP MM BERNICE 1965-06-30 12:00:00 TS 11.7000 -96.3000 45 hurdat_epa main 437 436 O________OO___ hurdat_epa EP041965 11.7000 -96.3000 TS 45 0 11.7000 -96.3000 TC 45 11.7000 -96.3000 2 4 269
1965182N12264 1965 53 EP MM BERNICE 1965-06-30 15:00:00 TS 11.6958 -96.5042 main 436 436 P________PP___ EP041965 11.6900 -96.5100 TS 45 0 11.6900 -96.5100 TC 45 11.7189 -96.4812 2 4 271
1965182N12264 1965 53 EP MM BERNICE 1965-06-30 18:00:00 TS 11.7080 -96.6920 45 hurdat_epa main 436 436 O________OP___ hurdat_epa EP041965 11.7000 -96.7000 TS 45 0 11.7000 -96.7000 TC 45 11.7402 -96.6599 2 3 279
1965182N12264 1965 53 EP MM BERNICE 1965-06-30 21:00:00 TS 11.7473 -96.8527 main 437 426 P________PP___ EP041965 11.7425 -96.8575 TS 45 0 11.7425 -96.8575 TC 45 11.7664 -96.8337 2 3 287
1965182N12264 1965 53 EP MM BERNICE 1965-07-01 00:00:00 TS 11.8000 -97.0000 45 hurdat_epa main 427 427 O________OO___ hurdat_epa EP041965 11.8000 -97.0000 TS 45 0 11.8000 -97.0000 TC 45 11.8000 -97.0000 2 3 288
1965182N12264 1965 53 EP MM BERNICE 1965-07-01 03:00:00 TS 11.8428 -97.1458 main 428 419 P________PP___ EP041965 11.8425 -97.1425 TS 45 0 11.8425 -97.1425 TC 45 11.8443 -97.1589 2 3 289
1965182N12264 1965 53 EP MM BERNICE 1965-07-01 06:00:00 TS 11.9010 -97.3041 45 hurdat_epa main 421 412 O________OP___ hurdat_epa EP041965 11.9000 -97.3000 TS 45 0 11.9000 -97.3000 TC 45 11.9048 -97.3202 2 4 293
1965182N12264 1965 53 EP MM BERNICE 1965-07-01 09:00:00 TS 11.9856 -97.4873 main 414 406 P________PP___ EP041965 11.9850 -97.4850 TS 45 0 11.9850 -97.4850 TC 45 11.9880 -97.4964 2 4 297
1965182N12264 1965 53 EP MM BERNICE 1965-07-01 12:00:00 TS 12.1000 -97.7000 45 hurdat_epa main 409 402 O________OO___ hurdat_epa EP041965 12.1000 -97.7000 TS 45 0 12.1000 -97.7000 TC 45 12.1000 -97.7000 2 5 300
1965182N12264 1965 53 EP MM BERNICE 1965-07-01 15:00:00 TS 12.2397 -97.9372 main 405 393 P________PP___ EP041965 12.2350 -97.9350 TS 45 0 12.2350 -97.9350 TC 45 12.2585 -97.9461 2 6 302
1965182N12264 1965 53 EP MM BERNICE 1965-07-01 18:00:00 TS 12.4085 -98.2040 45 hurdat_epa main 397 386 O________OP___ hurdat_epa EP041965 12.4000 -98.2000 TS 45 0 12.4000 -98.2000 TC 45 12.4425 -98.2198 2 7 304
1965182N12264 1965 53 EP MM BERNICE 1965-07-01 21:00:00 TS 12.6121 -98.5017 main 388 371 P________PP___ EP041965 12.6075 -98.4999 TS 45 0 12.6075 -98.4999 TC 45 12.6303 -98.5086 2 7 304
1965182N12264 1965 53 EP MM BERNICE 1965-07-02 00:00:00 TS 12.8000 -98.8000 45 hurdat_epa main 374 366 O________OO___ hurdat_epa EP041965 12.8000 -98.8000 TS 45 0 12.8000 -98.8000 TC 45 12.8000 -98.8000 2 6 299
1965182N12264 1965 53 EP MM BERNICE 1965-07-02 03:00:00 TS 12.9138 -99.0527 main 374 368 P________PP___ EP041965 12.9149 -99.0501 TS 45 0 12.9149 -99.0501 TC 45 12.9092 -99.0632 2 5 292
1965182N12264 1965 53 EP MM BERNICE 1965-07-02 06:00:00 TS 12.9999 -99.3056 45 hurdat_epa main 372 371 O________OP___ hurdat_epa EP041965 13.0000 -99.3000 TS 45 0 13.0000 -99.3000 TC 45 12.9997 -99.3280 2 6 289
1965182N12264 1965 53 EP MM BERNICE 1965-07-02 09:00:00 TS 13.0921 -99.5888 main 374 370 P________PP___ EP041965 13.0925 -99.5851 TS 45 0 13.0925 -99.5851 TC 45 13.0904 -99.6038 2 6 289
1965182N12264 1965 53 EP MM BERNICE 1965-07-02 12:00:00 TS 13.2000 -99.9000 45 hurdat_epa main 374 368 O________OO___ hurdat_epa EP041965 13.2000 -99.9000 TS 45 0 13.2000 -99.9000 TC 45 13.2000 -99.9000 2 7 292
1965182N12264 1965 53 EP MM BERNICE 1965-07-02 15:00:00 TS 13.3419 -100.239 main 377 368 P________PP___ EP041965 13.3350 -100.243 TS 45 0 13.3350 -100.243 TC 45 13.3696 -100.224 2 7 295
1965182N12264 1965 53 EP MM BERNICE 1965-07-02 18:00:00 TS 13.5115 -100.594 45 hurdat_epa main 371 355 O________OP___ hurdat_epa EP041965 13.5000 -100.600 TS 45 0 13.5000 -100.600 TC 45 13.5574 -100.570 2 8 299
1965182N12264 1965 53 EP MM BERNICE 1965-07-02 21:00:00 TS 13.7202 -100.940 main 359 352 P________PP___ EP041965 13.7149 -100.942 TS 45 0 13.7149 -100.942 TC 45 13.7415 -100.930 2 8 300
1965182N12264 1965 53 EP MM BERNICE 1965-07-03 00:00:00 TS 13.9000 -101.300 45 hurdat_epa main 357 357 O________OO___ hurdat_epa EP041965 13.9000 -101.300 TS 45 0 13.9000 -101.300 TC 45 13.9000 -101.300 2 8 289
1965182N12264 1965 53 EP MM BERNICE 1965-07-03 03:00:00 TS 13.9687 -101.696 main 370 370 P________PP___ EP041965 13.9650 -101.700 TS 45 0 13.9650 -101.700 TC 45 13.9834 -101.680 2 8 278
1965182N12264 1965 53 EP MM BERNICE 1965-07-03 06:00:00 TS 14.0085 -102.093 45 hurdat_epa main 384 380 O________OP___ hurdat_epa EP041965 14.0000 -102.100 TS 45 0 14.0000 -102.100 TC 45 14.0425 -102.066 2 8 279
1965182N12264 1965 53 EP MM BERNICE 1965-07-03 09:00:00 TS 14.0830 -102.461 main 388 386 P________PP___ EP041965 14.0774 -102.465 TS 45 0 14.0774 -102.465 TC 45 14.1053 -102.443 2 7 286
1965182N12264 1965 53 EP MM BERNICE 1965-07-03 12:00:00 TS 14.2000 -102.800 45 hurdat_epa main 391 387 O________OO___ hurdat_epa EP041965 14.2000 -102.800 TS 45 0 14.2000 -102.800 TC 45 14.2000 -102.800 2 7 295
1965182N12264 1965 53 EP MM BERNICE 1965-07-03 15:00:00 TS 14.3791 -103.112 main 388 385 P________PP___ EP041965 14.3849 -103.108 TS 45 0 14.3849 -103.108 TC 45 14.3557 -103.130 2 7 304
1965182N12264 1965 53 EP MM BERNICE 1965-07-03 18:00:00 TS 14.5895 -103.408 45 hurdat_epa main 387 376 O________OP___ hurdat_epa EP041965 14.6000 -103.400 TS 45 0 14.6000 -103.400 TC 45 14.5473 -103.438 2 7 305
1965182N12264 1965 53 EP MM BERNICE 1965-07-03 21:00:00 TS 14.7870 -103.711 main 376 362 P________PP___ EP041965 14.7925 -103.708 TS 45 0 14.7925 -103.708 TC 45 14.7652 -103.727 2 7 306
1965182N12264 1965 53 EP MM BERNICE 1965-07-04 00:00:00 TS 15.0000 -104.000 45 hurdat_epa main 366 352 O________OO___ hurdat_epa EP041965 15.0000 -104.000 TS 45 0 15.0000 -104.000 TC 45 15.0000 -104.000 2 7 311
1965182N12264 1965 53 EP MM BERNICE 1965-07-04 03:00:00 TS 15.2418 -104.250 main 355 327 P________PP___ EP041965 15.2424 -104.258 TS 45 0 15.2424 -104.258 TC 45 15.2391 -104.220 2 7 317
1965182N12264 1965 53 EP MM BERNICE 1965-07-04 06:00:00 TS 15.4983 -104.487 45 hurdat_epa main 330 313 O________OP___ hurdat_epa EP041965 15.5000 -104.500 TS 45 0 15.5000 -104.500 TC 45 15.4915 -104.433 2 7 319
1965182N12264 1965 53 EP MM BERNICE 1965-07-04 09:00:00 TS 15.7435 -104.706 main 317 297 P________PP___ EP041965 15.7423 -104.713 TS 45 0 15.7423 -104.713 TC 45 15.7483 -104.680 2 7 315
1965182N12264 1965 53 EP MM BERNICE 1965-07-04 12:00:00 TS 16.0000 -105.000 45 hurdat_epa main 302 296 O________OO___ hurdat_epa EP041965 16.0000 -105.000 TS 45 0 16.0000 -105.000 TC 45 16.0000 -105.000 2 9 309
1965182N12264 1965 53 EP MM BERNICE 1965-07-04 15:00:00 TS 16.3063 -105.438 main 301 300 P________PP___ EP041965 16.3150 -105.455 TS 45 0 16.3150 -105.455 TC 45 16.2716 -105.372 2 11 302
1965182N12264 1965 53 EP MM BERNICE 1965-07-04 18:00:00 TS 16.5861 -105.966 45 hurdat_epa main 317 311 O________OP___ hurdat_epa EP041965 16.6000 -106.000 TS 45 0 16.6000 -106.000 TC 45 16.5303 -105.832 2 11 296
1965182N12264 1965 53 EP MM BERNICE 1965-07-04 21:00:00 TS 16.7852 -106.466 main 323 323 P________PP___ EP041965 16.7943 -106.483 TS 45 0 16.7943 -106.483 TC 45 16.7489 -106.400 2 11 286
1965182N12264 1965 53 EP MM BERNICE 1965-07-05 00:00:00 TS 16.9000 -107.100 45 hurdat_epa main 354 354 O________OO___ hurdat_epa EP041965 16.9000 -107.100 TS 45 0 16.9000 -107.100 TC 45 16.9000 -107.100 2 15 276
1965182N12264 1965 53 EP MM BERNICE 1965-07-05 03:00:00 TS 16.9339 -107.982 main 422 422 P________PP___ EP041965 16.9302 -107.983 TS 45 0 16.9302 -107.983 TC 45 16.9490 -107.979 2 18 270
1965182N12264 1965 53 EP MM BERNICE 1965-07-05 06:00:00 TS 16.9056 -108.995 45 hurdat_epa main 500 500 O________OP___ hurdat_epa EP041965 16.9000 -109.000 TS 45 0 16.9000 -109.000 TC 45 16.9280 -108.977 2 20 268
1965182N12264 1965 53 EP MM BERNICE 1965-07-05 09:00:00 TS 16.8596 -110.026 main 586 586 P________PP___ EP041965 16.8576 -110.030 TS 45 0 16.8576 -110.030 TC 45 16.8676 -110.011 2 19 267
1965182N12264 1965 53 EP MM BERNICE 1965-07-05 12:00:00 TS 16.8000 -111.000 45 hurdat_epa main 681 681 O________OO___ hurdat_epa EP041965 16.8000 -111.000 TS 45 0 16.8000 -111.000 TC 45 16.8000 -111.000 2 17 266
1965182N12264 1965 53 EP MM BERNICE 1965-07-05 15:00:00 TS 16.7440 -111.795 main 718 718 P________PP___ EP041965 16.7417 -111.780 TS 45 0 16.7417 -111.780 TC 45 16.7532 -111.857 2 15 266
1965182N12264 1965 53 EP MM BERNICE 1965-07-05 18:00:00 TS 16.7022 -112.531 45 hurdat_epa main 741 741 O________OP___ hurdat_epa EP041965 16.7000 -112.500 TS 45 0 16.7000 -112.500 TC 45 16.7108 -112.655 2 15 268
1965182N12264 1965 53 EP MM BERNICE 1965-07-05 21:00:00 TS 16.6856 -113.332 main 774 774 P________PP___ EP041965 16.6850 -113.315 TS 45 0 16.6850 -113.315 TC 45 16.6880 -113.401 2 15 270
1965182N12264 1965 53 EP MM BERNICE 1965-07-06 00:00:00 TS 16.7000 -114.100 45 hurdat_epa main 815 815 O________OO___ hurdat_epa EP041965 16.7000 -114.100 TS 45 0 16.7000 -114.100 TC 45 16.7000 -114.100 2 14 272
1965182N12264 1965 53 EP MM BERNICE 1965-07-06 03:00:00 TS 16.7318 -114.777 main 855 855 P________PP___ EP041965 16.7271 -114.780 TS 45 0 16.7271 -114.780 TC 45 16.7505 -114.764 2 12 275
1965182N12264 1965 53 EP MM BERNICE 1965-07-06 06:00:00 TS 16.8076 -115.397 45 hurdat_epa main 885 885 O________OP___ hurdat_epa EP041965 16.8000 -115.400 TS 45 0 16.8000 -115.400 TC 45 16.8382 -115.387 2 12 280
1965182N12264 1965 53 EP MM BERNICE 1965-07-06 09:00:00 TS 16.9391 -115.998 main 918 917 P________PP___ EP041965 16.9347 -116.000 TS 45 0 16.9347 -116.000 TC 45 16.9569 -115.992 2 12 284
1965182N12264 1965 53 EP MM BERNICE 1965-07-06 12:00:00 TS 17.1000 -116.600 45 hurdat_epa main 946 946 O________OO___ hurdat_epa EP041965 17.1000 -116.600 TS 45 0 17.1000 -116.600 TC 45 17.1000 -116.600 2 12 284
1965182N12264 1965 53 EP MM BERNICE 1965-07-06 15:00:00 TS 17.2428 -117.239 main 985 985 P________PP___ EP041965 17.2424 -117.243 TS 45 0 17.2424 -117.243 TC 45 17.2443 -117.223 2 13 284
1965182N12264 1965 53 EP MM BERNICE 1965-07-06 18:00:00 TS 17.4022 -117.891 45 hurdat_epa main 1013 1013 O________OP___ hurdat_epa EP041965 17.4000 -117.900 TS 45 0 17.4000 -117.900 TC 45 17.4110 -117.856 2 13 286
1965182N12264 1965 53 EP MM BERNICE 1965-07-06 21:00:00 TS 17.5872 -118.530 main 1034 1034 P________PP___ EP041965 17.5846 -118.535 TS 45 0 17.5846 -118.535 TC 45 17.5973 -118.511 2 13 288
1965182N12264 1965 53 EP MM BERNICE 1965-07-07 00:00:00 TS 17.8000 -119.200 45 hurdat_epa main 1065 1065 O________OO___ hurdat_epa EP041965 17.8000 -119.200 TS 45 0 17.8000 -119.200 TC 45 17.8000 -119.200 2 14 289
1965182N12264 1965 53 EP MM BERNICE 1965-07-07 03:00:00 TS 18.0468 -119.932 main 1100 1100 P________PP___ EP041965 18.0498 -119.928 TS 45 0 18.0498 -119.928 TC 45 18.0351 -119.950 2 15 289
1965182N12264 1965 53 EP MM BERNICE 1965-07-07 06:00:00 TS 18.2960 -120.707 45 hurdat_epa main 1139 1139 O________OP___ hurdat_epa EP041965 18.3000 -120.700 TS 45 0 18.3000 -120.700 TC 45 18.2801 -120.734 2 16 288
1965182N12264 1965 53 EP MM BERNICE 1965-07-07 09:00:00 TS 18.5200 -121.511 main 1190 1190 P________PP___ EP041965 18.5224 -121.508 TS 45 0 18.5224 -121.508 TC 45 18.5100 -121.525 2 16 285
1965182N12264 1965 53 EP MM BERNICE 1965-07-07 12:00:00 TS 18.7000 -122.300 45 hurdat_epa main 1245 1245 O________OO___ hurdat_epa EP041965 18.7000 -122.300 TS 45 0 18.7000 -122.300 TC 45 18.7000 -122.300 2 15 282
1965182N12264 1965 53 EP MM BERNICE 1965-07-07 15:00:00 TS 18.8241 -123.020 main 1285 1285 P________PP___ EP041965 18.8221 -123.015 TS 45 0 18.8221 -123.015 TC 45 18.8323 -123.038 2 13 279
1965182N12264 1965 53 EP MM BERNICE 1965-07-07 18:00:00 TS 18.9032 -123.709 45 hurdat_epa main 1324 1324 O________OP___ hurdat_epa EP041965 18.9000 -123.700 TS 45 0 18.9000 -123.700 TC 45 18.9161 -123.743 2 13 276
1965182N12264 1965 53 EP MM BERNICE 1965-07-07 21:00:00 TS 18.9579 -124.401 main 1364 1364 P________PP___ EP041965 18.9556 -124.395 TS 45 0 18.9556 -124.395 TC 45 18.9669 -124.427 2 13 274
1965182N12264 1965 53 EP MM BERNICE 1965-07-08 00:00:00 TS 19.0000 -125.100 45 hurdat_epa main 1415 O________OO___ hurdat_epa EP041965 19.0000 -125.100 TS 45 0 19.0000 -125.100 TC 45 19.0000 -125.100 6 13 274

IBTrACS Databaseについて

本データベースは、米国NOAAが公開する1842年以降の世界の熱帯低気圧のベストトラックデータアーカイブInternational Best Track Archive for Climate Stewardship (IBTrACS)を、ウェブで閲覧しやすい形式に変換したものです。

最終更新日:2021-10-25